sim
Sign-in with your pilot id or email,
or register
Callsign
Passwort

Schedule Details

Flight Number: DLH1934 (2)
Departure: Munich Airport (EDDM) at 10:30
Arrival: Trieste Friuli Venezia Giulia Airport (LIPQ) at 11:25
Route: Lufthansa Passenger Schedule. Enter filed route here before submitting Pirep.

Weather Information
Getting current METAR information for EDDM 191150Z VRB04KT CAVOK 20/12 Q1019 NOSIG
Getting current METAR information for LIPQ 191150Z AUTO 15007KT 100V180 9999 NCD 26/09 Q1019

Schedule Frequency

Route Map